»·PEaware :: UPS2018 KBOI-KSFO

UPS2018 :: KBOI-KSFO

FLIGHT INFORMATION

Flight Status: Arrived
Operator:
United Parcel Service
More flights by this operator :: More flights under this callsign
Pilot: Will K. (13011)
Aircraft: BOEING 747-400 (WINGLETS)
(B744)
More flights by this aircraft type
Origin: KBOI Boise Air Terminal/Gowen
United States
Destination: KSFO San Francisco Intl
United States
More flights between these airports :: More routes between these airports
Route: +BOI3 BOI HYVAL REO HARTT LEGGS BDEGA2
File this flight plan on PilotEdge
Remarks:
Altitude:
(Current/Filed)
34,000ft
Speed:
(Current/Filed)
350kts
Departed: 22-Jul-18 05:43 PM
Arrived: 22-Jul-18 07:05 PM
Distance/Time
Traveled:
453nm/1:22
Distance/Time
To Go:
Arrived

Flight Plot

Page will automatically refresh every two minutes.

Flight plan parsing failed; only flown route is shown


Map Options




Map Legend


Flown Route
Filed Route
Departure Airport
Arrival Airport
Navaid (VOR, NDB)
Fix

Horizontal Profiles

Position Reports

Time Latitude Longitude Heading Altitude Ground
Speed
22-Jul-18 17:10 43.567583 -116.223562 24 2847ft 0kts
22-Jul-18 17:11 43.567583 -116.223562 24 2847ft 0kts
22-Jul-18 17:12 43.567583 -116.223562 24 2847ft 0kts
22-Jul-18 17:13 43.567583 -116.223562 24 2847ft 0kts
22-Jul-18 17:14 43.567583 -116.223562 24 2847ft 0kts
22-Jul-18 17:15 43.567583 -116.223562 24 2847ft 0kts
22-Jul-18 17:16 43.567583 -116.223562 24 2847ft 0kts
22-Jul-18 17:17 43.567583 -116.223562 24 2847ft 0kts
22-Jul-18 17:18 43.567583 -116.223562 24 2847ft 0kts
22-Jul-18 17:19 43.567583 -116.223562 24 2847ft 0kts
22-Jul-18 17:20 43.567583 -116.223562 24 2847ft 0kts
22-Jul-18 17:21 43.567583 -116.223562 24 2847ft 0kts
22-Jul-18 17:22 43.567583 -116.223562 24 2847ft 0kts
22-Jul-18 17:23 43.567583 -116.223562 24 2847ft 0kts
22-Jul-18 17:24 43.567583 -116.223562 24 2847ft 0kts
22-Jul-18 17:25 43.567583 -116.223562 24 2847ft 0kts
22-Jul-18 17:26 43.567583 -116.223562 24 2847ft 0kts
22-Jul-18 17:27 43.567583 -116.223562 24 2847ft 0kts
22-Jul-18 17:28 43.567583 -116.223562 24 2847ft 0kts
22-Jul-18 17:29 43.567583 -116.223562 24 2847ft 0kts
22-Jul-18 17:30 43.567583 -116.223562 24 2847ft 0kts
22-Jul-18 17:31 43.567379 -116.223688 22 2847ft 2kts
22-Jul-18 17:32 43.566981 -116.223900 20 2847ft 0kts
22-Jul-18 17:33 43.566981 -116.223900 20 2847ft 0kts
22-Jul-18 17:34 43.566981 -116.223900 20 2847ft 0kts
22-Jul-18 17:35 43.566981 -116.223900 20 2847ft 0kts
22-Jul-18 17:36 43.566981 -116.223900 20 2847ft 0kts
22-Jul-18 17:37 43.566981 -116.223900 20 2847ft 0kts
22-Jul-18 17:38 43.565723 -116.220265 114 2847ft 14kts
22-Jul-18 17:39 43.563374 -116.213366 115 2847ft 21kts
22-Jul-18 17:40 43.561314 -116.207315 115 2847ft 8kts
22-Jul-18 17:41 43.559528 -116.202488 166 2847ft 5kts
22-Jul-18 17:42 43.559472 -116.202472 169 2847ft 0kts
22-Jul-18 17:43 43.559266 -116.202467 187 2847ft 8kts
22-Jul-18 17:44 43.560903 -116.209546 294 2847ft 104kts
22-Jul-18 17:45 43.580432 -116.274796 293 5137ft 204kts
22-Jul-18 17:46 43.578941 -116.360751 235 6070ft 279kts
22-Jul-18 17:47 43.520932 -116.438574 224 8888ft 299kts
22-Jul-18 17:48 43.456967 -116.520637 224 10863ft 349kts
22-Jul-18 17:49 43.379557 -116.619774 224 12912ft 396kts
22-Jul-18 17:50 43.297776 -116.724723 224 16057ft 410kts
22-Jul-18 17:51 43.212793 -116.832487 224 19101ft 422kts
22-Jul-18 17:52 43.126194 -116.946141 230 21603ft 438kts
22-Jul-18 17:53 43.049569 -117.079097 233 23888ft 453kts
22-Jul-18 17:54 42.970632 -117.216132 232 26156ft 464kts
22-Jul-18 17:55 42.889695 -117.356470 232 28076ft 473kts
22-Jul-18 17:56 42.809671 -117.494540 232 30671ft 460kts
22-Jul-18 17:57 42.731279 -117.629470 231 32737ft 451kts
22-Jul-18 17:58 42.653174 -117.762081 231 34204ft 447kts
22-Jul-18 17:59 42.573311 -117.891384 225 34210ft 447kts
22-Jul-18 18:00 42.482171 -118.006316 223 34210ft 448kts
22-Jul-18 18:01 42.391043 -118.120595 223 34212ft 449kts
22-Jul-18 18:02 42.299799 -118.235903 223 34214ft 449kts
22-Jul-18 18:03 42.208672 -118.350900 223 34217ft 449kts
22-Jul-18 18:04 42.117036 -118.465644 223 34209ft 449kts
22-Jul-18 18:05 42.025544 -118.579668 223 34208ft 448kts
22-Jul-18 18:06 41.933680 -118.693680 222 34219ft 451kts
22-Jul-18 18:07 41.841532 -118.807569 222 34235ft 451kts
22-Jul-18 18:08 41.748955 -118.921520 222 34233ft 451kts
22-Jul-18 18:09 41.656519 -119.034834 222 34237ft 451kts
22-Jul-18 18:10 41.563775 -119.148066 222 34239ft 452kts
22-Jul-18 18:11 41.470906 -119.260987 222 34235ft 452kts
22-Jul-18 18:12 41.377894 -119.373635 222 34231ft 452kts
22-Jul-18 18:13 41.284779 -119.485943 221 34234ft 452kts
22-Jul-18 18:14 41.191580 -119.597909 221 34235ft 452kts
22-Jul-18 18:15 41.098077 -119.709793 221 34238ft 453kts
22-Jul-18 18:16 41.004525 -119.821776 221 34252ft 454kts
22-Jul-18 18:17 40.910340 -119.933278 221 34255ft 455kts
22-Jul-18 18:18 40.812354 -120.039096 211 34258ft 455kts
22-Jul-18 18:19 40.701721 -120.119986 208 34258ft 455kts
22-Jul-18 18:20 40.590508 -120.200369 208 34259ft 456kts
22-Jul-18 18:21 40.479852 -120.281034 208 34260ft 456kts
22-Jul-18 18:22 40.368497 -120.361958 208 34260ft 457kts
22-Jul-18 18:23 40.257162 -120.442381 208 34265ft 457kts
22-Jul-18 18:24 40.145612 -120.522637 208 34274ft 457kts
22-Jul-18 18:25 40.034338 -120.602378 208 34280ft 457kts
22-Jul-18 18:26 39.922462 -120.682258 207 34300ft 459kts
22-Jul-18 18:27 39.810293 -120.762043 207 34244ft 459kts
22-Jul-18 18:28 39.698307 -120.841405 207 34263ft 459kts
22-Jul-18 18:29 39.586158 -120.920816 207 34281ft 459kts
22-Jul-18 18:30 39.473868 -120.999761 207 34270ft 459kts
22-Jul-18 18:31 39.361274 -121.078735 210 34237ft 460kts
22-Jul-18 18:32 39.270298 -121.195667 228 34070ft 465kts
22-Jul-18 18:33 39.187568 -121.323530 227 34032ft 465kts
22-Jul-18 18:34 39.104297 -121.450621 228 33990ft 464kts
22-Jul-18 18:35 39.021095 -121.578077 227 34006ft 465kts
22-Jul-18 18:36 38.937476 -121.704855 227 34011ft 465kts
22-Jul-18 18:37 38.853497 -121.831580 227 34013ft 465kts
22-Jul-18 18:38 38.772454 -121.953395 226 33999ft 421kts
22-Jul-18 18:39 38.700668 -122.060908 226 33167ft 397kts
22-Jul-18 18:40 38.627543 -122.170599 227 31307ft 401kts
22-Jul-18 18:41 38.556288 -122.276425 227 29481ft 386kts
22-Jul-18 18:42 38.487408 -122.378283 227 27716ft 371kts
22-Jul-18 18:43 38.421524 -122.476216 227 25972ft 357kts
22-Jul-18 18:44 38.357360 -122.571669 227 24243ft 359kts
22-Jul-18 18:45 38.292373 -122.667603 227 22474ft 352kts
22-Jul-18 18:46 38.222772 -122.748813 197 20748ft 333kts
22-Jul-18 18:47 38.130339 -122.741904 167 18807ft 346kts
22-Jul-18 18:48 38.034186 -122.712216 167 16965ft 364kts
22-Jul-18 18:49 37.936728 -122.683995 167 15961ft 333kts
22-Jul-18 18:50 37.859597 -122.632720 141 14021ft 311kts
22-Jul-18 18:51 37.795860 -122.563309 141 12819ft 292kts
22-Jul-18 18:52 37.734006 -122.497863 138 11075ft 288kts
22-Jul-18 18:53 37.696121 -122.408181 114 11008ft 294kts
22-Jul-18 18:54 37.664673 -122.313143 114 10941ft 287kts
22-Jul-18 18:55 37.634848 -122.223740 114 9715ft 272kts
22-Jul-18 18:56 37.605035 -122.136691 114 8242ft 268kts
22-Jul-18 18:57 37.575738 -122.050668 114 6803ft 264kts
22-Jul-18 18:58 37.522822 -122.007927 201 5450ft 245kts
22-Jul-18 18:59 37.506357 -122.074186 273 4773ft 188kts
22-Jul-18 19:00 37.518818 -122.134698 294 3907ft 181kts
22-Jul-18 19:01 37.541542 -122.185962 294 3006ft 157kts
22-Jul-18 19:02 37.561671 -122.233693 295 2173ft 151kts
22-Jul-18 19:03 37.581178 -122.280105 297 1379ft 147kts
22-Jul-18 19:04 37.600125 -122.324690 297 661ft 142kts
22-Jul-18 19:05 37.618139 -122.368168 298 27ft 111kts
22-Jul-18 19:06 37.622161 -122.375685 37 26ft 0kts
22-Jul-18 19:07 37.624499 -122.379594 297 26ft 18kts
22-Jul-18 19:08 37.626896 -122.385331 298 26ft 26kts
22-Jul-18 19:09 37.629535 -122.391606 305 26ft 12kts
22-Jul-18 19:10 37.632157 -122.391568 358 26ft 9kts
22-Jul-18 19:11 37.634753 -122.388555 45 26ft 9kts
22-Jul-18 19:12 37.636774 -122.388920 20 26ft 6kts
22-Jul-18 19:13 37.637082 -122.388345 56 26ft 0kts
22-Jul-18 19:14 37.637082 -122.388344 56 26ft 0kts
22-Jul-18 19:15 37.637083 -122.388344 56 26ft 0kts
22-Jul-18 19:16 37.637083 -122.388343 56 26ft 0kts
22-Jul-18 19:17 37.637084 -122.388342 56 26ft 0kts
22-Jul-18 19:18 37.637084 -122.388341 56 26ft 0kts

Navigation Log

Ident Type
Flight plan parsing failed, navigation log unavailable